Time;durP1;ratioP1;P1;durP2;ratioP2;P2;SDS_P1;SDS_P2;PMS_P1;PMS_P2;Temp;Humidity;BMP_temperature;BMP_pressure;BME280_temperature;BME280_humidity;BME280_pressure;Samples;Min_cycle;Max_cycle;Signal;HPM_P1;HPM_P2
2021/08/25 00:01:40;;;;;;;15.77;4.85;;;;;;;15.54;59.71;102284.25;5115813;28;20502;-70
2021/08/25 00:04:06;;;;;;;12.85;4.90;;;;;;;15.55;59.63;102280.59;5113885;28;20096;-69
2021/08/25 00:06:33;;;;;;;11.18;4.85;;;;;;;15.53;59.59;102282.59;5114782;28;20050;-70
2021/08/25 00:09:00;;;;;;;12.35;4.88;;;;;;;15.54;59.51;102283.41;5114372;28;20032;-70
2021/08/25 00:11:26;;;;;;;13.38;5.03;;;;;;;15.50;59.50;102280.22;5115822;28;20040;-69
2021/08/25 00:13:53;;;;;;;16.58;5.75;;;;;;;15.48;59.42;102275.97;5115152;28;20055;-70
2021/08/25 00:16:20;;;;;;;14.15;5.72;;;;;;;15.40;60.13;102281.25;5115705;28;20039;-69
2021/08/25 00:18:46;;;;;;;15.07;6.28;;;;;;;15.43;60.13;102267.59;5114199;28;20043;-70
2021/08/25 00:21:14;;;;;;;12.13;5.60;;;;;;;15.47;60.25;102274.31;5097802;28;20039;-70
2021/08/25 00:23:41;;;;;;;17.92;5.75;;;;;;;15.42;60.75;102271.22;5114177;28;20039;-70
2021/08/25 00:26:08;;;;;;;11.93;5.05;;;;;;;15.36;60.51;102267.31;5097270;28;20531;-69
2021/08/25 00:28:36;;;;;;;14.38;5.53;;;;;;;15.32;60.74;102255.25;5097063;28;20407;-71
2021/08/25 00:31:02;;;;;;;14.85;5.15;;;;;;;15.22;60.26;102257.97;5094797;28;20066;-69
2021/08/25 00:33:29;;;;;;;11.75;4.75;;;;;;;15.07;62.00;102254.09;5075141;28;20071;-69
2021/08/25 00:35:56;;;;;;;14.50;5.15;;;;;;;15.03;61.76;102247.38;5094780;28;20164;-69
2021/08/25 00:38:23;;;;;;;11.52;4.82;;;;;;;15.09;61.86;102249.44;5107376;28;20043;-70
2021/08/25 00:40:49;;;;;;;12.15;5.07;;;;;;;15.01;61.97;102243.97;5115104;28;20048;-69
2021/08/25 00:43:16;;;;;;;16.08;5.32;;;;;;;15.03;62.32;102245.53;5114802;28;20094;-69
2021/08/25 00:45:43;;;;;;;13.63;5.03;;;;;;;14.99;62.83;102246.81;5113471;28;20046;-69
2021/08/25 00:48:15;;;;;;;15.85;5.35;;;;;;;14.95;62.59;102248.06;5115154;28;20399;-69
2021/08/25 00:50:46;;;;;;;11.73;4.72;;;;;;;14.91;63.44;102244.03;5096687;28;20068;-69
2021/08/25 00:53:12;;;;;;;11.93;4.50;;;;;;;14.85;63.81;102237.44;5113678;28;20122;-69
2021/08/25 00:55:41;;;;;;;12.10;4.55;;;;;;;14.85;63.86;102234.75;5113354;28;20153;-69
2021/08/25 00:58:09;;;;;;;11.73;5.00;;;;;;;14.82;63.85;102231.53;5079957;28;20053;-70
2021/08/25 01:00:44;;;;;;;14.50;5.32;;;;;;;14.79;64.46;102235.34;5112121;28;20112;-70
2021/08/25 01:03:15;;;;;;;13.80;4.55;;;;;;;14.84;64.25;102229.56;5114770;28;20039;-69
2021/08/25 01:05:42;;;;;;;11.73;4.47;;;;;;;14.72;64.82;102237.75;5111595;28;20048;-70
2021/08/25 01:08:11;;;;;;;10.70;4.88;;;;;;;14.67;64.81;102231.16;5114370;28;20036;-69
2021/08/25 01:10:38;;;;;;;14.57;5.03;;;;;;;14.65;65.21;102236.66;5114621;28;20050;-69
2021/08/25 01:13:12;;;;;;;13.73;5.20;;;;;;;14.46;65.99;102229.50;5113439;28;20039;-70
2021/08/25 01:15:41;;;;;;;13.32;4.57;;;;;;;14.34;66.38;102238.66;5114204;28;20052;-69
2021/08/25 01:18:13;;;;;;;11.73;4.75;;;;;;;14.39;66.34;102239.06;5114417;28;20477;-70
2021/08/25 01:20:45;;;;;;;12.63;4.80;;;;;;;14.35;66.23;102233.19;5112662;28;20044;-69
2021/08/25 01:23:13;;;;;;;9.95;4.43;;;;;;;14.38;66.11;102226.69;5113245;28;20100;-69
2021/08/25 01:25:41;;;;;;;12.13;4.50;;;;;;;14.33;66.48;102234.28;5114205;28;20044;-69
2021/08/25 01:28:09;;;;;;;14.18;4.90;;;;;;;14.32;66.95;102224.59;5101744;28;20032;-69
2021/08/25 01:30:38;;;;;;;11.65;4.90;;;;;;;14.23;67.07;102220.97;5092167;28;20077;-70
2021/08/25 01:33:05;;;;;;;11.50;4.70;;;;;;;14.26;67.13;102212.69;5095943;28;20035;-69
2021/08/25 01:35:37;;;;;;;13.50;4.95;;;;;;;14.31;66.74;102217.56;5097929;28;20044;-70
2021/08/25 01:38:05;;;;;;;16.45;5.50;;;;;;;14.36;66.22;102216.16;5092822;28;20460;-70
2021/08/25 01:40:33;;;;;;;15.75;5.60;;;;;;;14.33;66.68;102219.09;5092442;28;20044;-70
2021/08/25 01:43:00;;;;;;;11.93;5.30;;;;;;;14.30;66.98;102219.41;5093484;28;20510;-70
2021/08/25 01:45:27;;;;;;;14.13;5.68;;;;;;;14.34;67.23;102215.47;5089958;28;20054;-70
2021/08/25 01:48:02;;;;;;;17.05;6.13;;;;;;;14.16;68.02;102225.19;5099293;27;20166;-70
2021/08/25 01:50:28;;;;;;;15.85;5.50;;;;;;;14.04;68.40;102223.63;5133676;27;20125;-69
2021/08/25 01:52:55;;;;;;;12.63;5.70;;;;;;;14.12;68.65;102224.63;5134427;27;20514;-70
2021/08/25 01:55:22;;;;;;;14.15;5.80;;;;;;;14.02;68.44;102221.97;5134294;27;20057;-70
2021/08/25 01:57:49;;;;;;;16.40;5.53;;;;;;;14.05;68.63;102214.66;5123876;27;20043;-69
2021/08/25 02:00:16;;;;;;;16.20;5.82;;;;;;;13.92;69.32;102209.59;5111905;28;20043;-69
2021/08/25 02:02:42;;;;;;;15.52;5.60;;;;;;;13.95;69.24;102207.50;5112480;28;20047;-70
2021/08/25 02:05:09;;;;;;;14.50;5.30;;;;;;;13.80;69.72;102201.72;5112088;28;20044;-69
2021/08/25 02:07:36;;;;;;;15.65;5.43;;;;;;;13.85;69.41;102211.13;5113714;28;20035;-70
2021/08/25 02:10:04;;;;;;;14.80;5.47;;;;;;;13.81;69.93;102199.91;5113515;28;20131;-70
2021/08/25 02:12:31;;;;;;;15.13;5.60;;;;;;;13.80;69.92;102198.22;5113191;28;20039;-70
2021/08/25 02:14:58;;;;;;;15.13;6.07;;;;;;;13.76;70.52;102202.16;5111348;28;20590;-70
2021/08/25 02:17:25;;;;;;;13.98;5.30;;;;;;;13.75;69.94;102203.13;5112220;28;20050;-70
2021/08/25 02:19:52;;;;;;;14.32;5.78;;;;;;;13.70;70.52;102192.00;5111402;28;20044;-70
2021/08/25 02:22:19;;;;;;;14.70;5.55;;;;;;;13.73;70.68;102202.41;5095201;28;20411;-70
2021/08/25 02:24:45;;;;;;;16.42;5.72;;;;;;;13.78;71.04;102195.69;5113194;28;20078;-70
2021/08/25 02:27:13;;;;;;;14.48;5.30;;;;;;;13.70;71.13;102195.56;5108017;28;20044;-70
2021/08/25 02:29:40;;;;;;;14.88;5.07;;;;;;;13.73;71.11;102189.09;5091196;28;20071;-69
2021/08/25 02:32:07;;;;;;;14.50;4.90;;;;;;;13.67;71.04;102190.47;5091701;28;20050;-70
2021/08/25 02:34:33;;;;;;;17.60;5.35;;;;;;;13.51;71.21;102190.19;5091334;28;20424;-69
2021/08/25 02:37:00;;;;;;;14.63;5.43;;;;;;;13.60;70.91;102189.34;5076333;28;20523;-70
2021/08/25 02:39:27;;;;;;;17.00;7.25;;;;;;;13.53;71.57;102193.56;5113109;28;20050;-69
2021/08/25 02:41:53;;;;;;;17.23;6.13;;;;;;;13.52;71.18;102186.56;5111776;28;20101;-69
2021/08/25 02:44:20;;;;;;;15.90;5.50;;;;;;;13.60;70.90;102184.03;5109623;28;20042;-69
2021/08/25 02:46:47;;;;;;;14.85;5.75;;;;;;;13.56;71.21;102182.63;5111945;28;20032;-70
2021/08/25 02:49:13;;;;;;;12.98;5.15;;;;;;;13.54;71.50;102185.41;5111707;28;20035;-69
2021/08/25 02:51:40;;;;;;;15.60;5.60;;;;;;;13.39;71.90;102184.97;5095029;28;20097;-70
2021/08/25 02:54:07;;;;;;;18.85;6.35;;;;;;;13.43;71.63;102186.38;5111841;28;20127;-70
2021/08/25 02:56:34;;;;;;;13.68;5.90;;;;;;;13.41;71.58;102183.03;5111387;28;20503;-70
2021/08/25 02:59:01;;;;;;;14.30;5.80;;;;;;;13.37;71.81;102170.09;5094528;28;20053;-70
2021/08/25 03:01:27;;;;;;;18.58;6.25;;;;;;;13.31;72.48;102178.66;5077993;28;20072;-70
2021/08/25 03:03:54;;;;;;;16.10;6.15;;;;;;;13.35;71.87;102186.25;5112683;28;20047;-70
2021/08/25 03:06:21;;;;;;;16.85;5.90;;;;;;;13.37;71.79;102180.75;5112853;28;20036;-70
2021/08/25 03:08:50;;;;;;;14.77;6.05;;;;;;;13.39;71.62;102169.00;5112591;28;20027;-70
2021/08/25 03:11:16;;;;;;;14.45;5.90;;;;;;;13.37;72.15;102178.09;5094777;28;20478;-70
2021/08/25 03:13:43;;;;;;;15.88;6.45;;;;;;;13.25;72.34;102164.84;5078038;28;20039;-70
2021/08/25 03:16:10;;;;;;;13.48;6.00;;;;;;;13.21;72.96;102163.44;5110584;28;20039;-70
2021/08/25 03:18:37;;;;;;;15.93;6.20;;;;;;;13.18;72.53;102171.72;5112545;28;20054;-70
2021/08/25 03:21:04;;;;;;;19.40;6.22;;;;;;;13.16;72.93;102165.69;5111682;28;20039;-70
2021/08/25 03:23:30;;;;;;;16.67;6.03;;;;;;;13.15;72.91;102158.69;5111475;28;20050;-70
2021/08/25 03:25:57;;;;;;;13.88;6.20;;;;;;;13.16;72.05;102163.00;5116850;28;20488;-70
2021/08/25 03:28:24;;;;;;;13.45;5.85;;;;;;;13.07;72.99;102156.66;5116283;28;20039;-70
2021/08/25 03:30:56;;;;;;;15.70;6.10;;;;;;;13.08;73.22;102157.53;5081074;28;20409;-70
2021/08/25 03:33:23;;;;;;;14.95;5.60;;;;;;;13.08;73.28;102157.53;5116577;27;20559;-70
2021/08/25 03:35:50;;;;;;;19.73;6.70;;;;;;;13.10;72.80;102152.91;5115191;28;20412;-70
2021/08/25 03:38:17;;;;;;;15.35;6.03;;;;;;;13.14;72.63;102151.66;5115711;28;20127;-70
2021/08/25 03:40:45;;;;;;;17.50;5.63;;;;;;;13.10;72.92;102144.91;5113473;28;20065;-70
2021/08/25 03:43:12;;;;;;;12.70;5.50;;;;;;;13.02;73.17;102148.25;5115320;28;20039;-70
2021/08/25 03:45:38;;;;;;;16.23;6.15;;;;;;;13.05;73.30;102144.47;5115752;28;20039;-70
2021/08/25 03:48:06;;;;;;;14.57;5.40;;;;;;;12.98;73.33;102140.66;5115575;28;20042;-70
2021/08/25 03:50:32;;;;;;;17.42;6.10;;;;;;;13.03;73.26;102147.28;5130148;27;20506;-70
2021/08/25 03:52:59;;;;;;;16.58;6.32;;;;;;;13.02;73.19;102153.59;5129054;27;20051;-70
2021/08/25 03:55:26;;;;;;;16.95;6.68;;;;;;;12.99;73.46;102143.19;5137874;27;20039;-70
2021/08/25 03:57:53;;;;;;;15.45;5.90;;;;;;;13.05;73.08;102139.97;5107751;28;20036;-70
2021/08/25 04:00:20;;;;;;;14.40;6.10;;;;;;;13.05;73.12;102141.81;5115634;28;20105;-70
2021/08/25 04:02:47;;;;;;;16.33;6.00;;;;;;;12.97;73.45;102131.84;5097893;28;20035;-70
2021/08/25 04:05:13;;;;;;;17.20;5.88;;;;;;;12.93;73.94;102141.06;5113324;28;20528;-70
2021/08/25 04:07:40;;;;;;;15.30;5.55;;;;;;;12.86;73.87;102138.13;5113646;28;20411;-70
2021/08/25 04:10:08;;;;;;;14.32;5.32;;;;;;;12.84;73.80;102141.88;5114611;28;20044;-70
2021/08/25 04:12:34;;;;;;;12.77;5.95;;;;;;;12.88;73.38;102138.00;5115818;28;20130;-70
2021/08/25 04:15:04;;;;;;;16.80;6.10;;;;;;;12.94;73.28;102145.44;5115201;28;20491;-70
2021/08/25 04:17:30;;;;;;;14.98;5.57;;;;;;;12.86;73.83;102148.78;5114364;28;20036;-70
2021/08/25 04:19:58;;;;;;;15.27;5.95;;;;;;;12.83;74.32;102145.53;5114047;28;20040;-70
2021/08/25 04:22:25;;;;;;;14.00;5.68;;;;;;;12.79;74.50;102138.78;5080593;28;20134;-70
2021/08/25 04:24:51;;;;;;;22.15;5.68;;;;;;;12.75;74.44;102145.34;5097126;28;20047;-70
2021/08/25 04:27:19;;;;;;;15.48;5.72;;;;;;;12.78;74.05;102139.75;5108583;28;20393;-70
2021/08/25 04:29:45;;;;;;;14.38;6.13;;;;;;;12.76;73.95;102142.56;5093278;28;20492;-70
2021/08/25 04:32:12;;;;;;;13.60;5.88;;;;;;;12.77;74.71;102144.25;5093773;28;20054;-70
2021/08/25 04:34:39;;;;;;;13.65;5.78;;;;;;;12.75;75.17;102140.88;5074596;28;20040;-70
2021/08/25 04:37:05;;;;;;;20.95;6.13;;;;;;;12.71;75.02;102143.94;5094434;28;20543;-70
2021/08/25 04:39:32;;;;;;;17.65;6.38;;;;;;;12.73;75.13;102152.63;5093520;28;20065;-70
2021/08/25 04:41:59;;;;;;;14.35;5.90;;;;;;;12.71;74.71;102141.28;5094657;28;20044;-70
2021/08/25 04:44:26;;;;;;;16.85;5.70;;;;;;;12.76;74.75;102141.72;5102089;28;20103;-70
2021/08/25 04:46:53;;;;;;;21.80;6.22;;;;;;;12.79;75.08;102133.47;5113731;28;20059;-70
2021/08/25 04:49:19;;;;;;;19.27;6.18;;;;;;;12.68;76.00;102129.91;5114988;28;20042;-70
2021/08/25 04:51:46;;;;;;;15.52;6.60;;;;;;;12.66;75.02;102133.66;5096856;28;20092;-70
2021/08/25 04:54:13;;;;;;;16.95;6.10;;;;;;;12.66;75.11;102131.00;5115018;28;20054;-70
2021/08/25 04:56:39;;;;;;;20.38;6.28;;;;;;;12.68;75.23;102137.91;5114716;28;20052;-70
2021/08/25 04:59:06;;;;;;;16.25;6.07;;;;;;;12.75;74.96;102135.56;5114445;28;20456;-69
2021/08/25 05:01:34;;;;;;;15.02;5.80;;;;;;;12.79;74.99;102138.78;5114044;28;20039;-69
2021/08/25 05:04:01;;;;;;;19.17;5.88;;;;;;;12.83;75.64;102134.88;5113323;28;20035;-69
2021/08/25 05:06:28;;;;;;;15.90;6.18;;;;;;;12.83;75.71;102126.88;5114417;28;20514;-70
2021/08/25 05:08:55;;;;;;;23.88;6.25;;;;;;;12.85;75.20;102127.59;5114332;28;20035;-70
2021/08/25 05:11:22;;;;;;;18.00;6.32;;;;;;;12.91;74.38;102126.22;5113104;28;20047;-69
2021/08/25 05:13:49;;;;;;;20.73;6.50;;;;;;;12.92;75.07;102126.06;5113415;28;20096;-70
2021/08/25 05:16:16;;;;;;;21.90;6.75;;;;;;;12.90;75.02;102119.19;5112010;28;20528;-70
2021/08/25 05:18:43;;;;;;;21.77;6.20;;;;;;;12.97;75.54;102123.84;5114144;28;20036;-70
2021/08/25 05:21:10;;;;;;;23.83;6.57;;;;;;;12.95;75.39;102128.47;5114401;28;20047;-69
2021/08/25 05:23:37;;;;;;;29.55;6.45;;;;;;;13.04;75.54;102125.00;5114055;28;20035;-70
2021/08/25 05:26:05;;;;;;;20.83;6.90;;;;;;;13.06;75.60;102123.03;5095852;28;20047;-70
2021/08/25 05:28:33;;;;;;;22.00;6.57;;;;;;;13.12;75.17;102120.81;5097629;28;20131;-69
2021/08/25 05:31:00;;;;;;;20.02;6.18;;;;;;;13.11;75.33;102124.44;5093320;28;20043;-69
2021/08/25 05:33:27;;;;;;;17.35;6.70;;;;;;;13.17;75.46;102123.88;5075777;28;20036;-70
2021/08/25 05:35:54;;;;;;;19.45;6.40;;;;;;;13.17;75.82;102129.22;5093499;28;20123;-70
2021/08/25 05:38:21;;;;;;;19.23;6.50;;;;;;;13.24;75.93;102123.22;5093162;28;20051;-69
2021/08/25 05:40:48;;;;;;;26.10;7.40;;;;;;;13.23;75.86;102129.50;5073926;28;20075;-71
2021/08/25 05:43:17;;;;;;;18.77;6.70;;;;;;;13.27;74.92;102130.06;5102544;28;20403;-69
2021/08/25 05:45:44;;;;;;;18.75;6.32;;;;;;;13.36;75.56;102123.94;5095750;28;20054;-70
2021/08/25 05:48:11;;;;;;;23.25;6.82;;;;;;;13.40;75.64;102121.84;5112905;28;20036;-69
2021/08/25 05:50:38;;;;;;;20.08;6.85;;;;;;;13.41;75.58;102127.03;5102019;27;20117;-69
2021/08/25 05:53:05;;;;;;;20.70;7.55;;;;;;;13.46;75.66;102126.59;5132599;27;20043;-69
2021/08/25 05:55:32;;;;;;;18.05;7.53;;;;;;;13.50;75.48;102128.03;5134100;27;20071;-69
2021/08/25 05:57:58;;;;;;;22.42;7.80;;;;;;;13.55;75.05;102124.94;5103907;28;20146;-69
2021/08/25 06:00:25;;;;;;;21.58;7.53;;;;;;;13.66;75.05;102137.28;5095056;28;20036;-69
2021/08/25 06:02:52;;;;;;;21.73;7.15;;;;;;;13.68;74.98;102130.84;5112259;28;20488;-69
2021/08/25 06:05:19;;;;;;;17.77;7.32;;;;;;;13.77;75.00;102130.00;5111949;28;20050;-69
2021/08/25 06:07:46;;;;;;;17.42;7.55;;;;;;;13.83;74.92;102123.25;5113644;28;20290;-70
2021/08/25 06:10:13;;;;;;;17.00;7.18;;;;;;;13.85;74.63;102131.13;5112684;28;20123;-69
2021/08/25 06:12:39;;;;;;;24.42;7.63;;;;;;;13.85;74.74;102120.47;5114104;28;20051;-70
2021/08/25 06:15:07;;;;;;;17.02;7.22;;;;;;;13.91;74.95;102127.88;5113571;28;20108;-69
2021/08/25 06:17:34;;;;;;;19.60;7.63;;;;;;;13.91;73.80;102125.22;5112535;28;20039;-70
2021/08/25 06:20:01;;;;;;;20.52;7.70;;;;;;;14.04;73.90;102130.25;5111980;28;20044;-69
2021/08/25 06:22:28;;;;;;;21.05;7.70;;;;;;;14.07;73.87;102136.13;5113014;28;20526;-70
2021/08/25 06:24:55;;;;;;;17.90;7.03;;;;;;;14.12;73.46;102136.56;5112635;28;20067;-70
2021/08/25 06:27:23;;;;;;;18.08;7.45;;;;;;;14.16;73.21;102131.78;5106933;28;20442;-70
2021/08/25 06:29:50;;;;;;;19.25;7.28;;;;;;;14.19;72.49;102137.66;5092317;28;20050;-69
2021/08/25 06:32:18;;;;;;;21.25;7.13;;;;;;;14.25;71.46;102138.09;5091641;28;20044;-69
2021/08/25 06:34:45;;;;;;;17.15;6.93;;;;;;;14.24;69.65;102131.88;5074971;28;20564;-70
2021/08/25 06:37:12;;;;;;;16.35;6.88;;;;;;;14.27;67.55;102123.59;5095680;28;20082;-69
2021/08/25 06:39:38;;;;;;;19.02;7.68;;;;;;;14.23;66.19;102124.88;5109512;28;20039;-70
2021/08/25 06:42:05;;;;;;;20.88;7.30;;;;;;;14.36;67.11;102119.22;5078270;28;20050;-70
2021/08/25 06:44:32;;;;;;;22.65;6.95;;;;;;;14.43;67.16;102122.16;5112965;28;20118;-70
2021/08/25 06:46:59;;;;;;;18.73;7.18;;;;;;;14.48;66.89;102125.22;5094951;28;20036;-70
2021/08/25 06:49:26;;;;;;;18.20;7.18;;;;;;;14.53;66.48;102134.47;5077820;28;20120;-70
2021/08/25 06:51:52;;;;;;;17.67;6.60;;;;;;;14.61;66.21;102128.44;5077832;28;20044;-70
2021/08/25 06:54:19;;;;;;;19.27;6.97;;;;;;;14.61;65.15;102127.56;5094775;28;20071;-70
2021/08/25 06:56:46;;;;;;;17.77;7.07;;;;;;;14.69;64.15;102131.19;5111571;28;20036;-70
2021/08/25 06:59:13;;;;;;;16.98;6.70;;;;;;;14.72;64.98;102124.75;5113157;28;20046;-70
2021/08/25 07:01:40;;;;;;;19.23;6.93;;;;;;;14.76;64.31;102126.13;5116671;28;20040;-70
2021/08/25 07:04:06;;;;;;;21.17;6.63;;;;;;;14.81;64.11;102129.19;5113884;28;20052;-70
2021/08/25 07:06:33;;;;;;;18.00;7.75;;;;;;;14.89;64.53;102123.94;5115123;28;20108;-70
2021/08/25 07:09:02;;;;;;;21.95;7.30;;;;;;;14.93;63.34;102124.47;5116821;28;20064;-70
2021/08/25 07:11:28;;;;;;;22.83;6.93;;;;;;;15.01;63.89;102123.72;5115710;28;20396;-70
2021/08/25 07:13:55;;;;;;;19.42;6.95;;;;;;;15.06;61.70;102125.00;5115654;28;20043;-70
2021/08/25 07:16:22;;;;;;;15.65;6.28;;;;;;;15.12;62.26;102119.03;5116439;28;20547;-70
2021/08/25 07:18:49;;;;;;;20.60;6.88;;;;;;;15.24;61.70;102114.28;5115460;28;20122;-70
2021/08/25 07:21:15;;;;;;;21.70;6.53;;;;;;;15.12;61.98;102115.53;5115280;28;20499;-70
2021/08/25 07:23:44;;;;;;;14.07;5.97;;;;;;;15.25;62.19;102113.31;5115212;28;20065;-70
2021/08/25 07:26:10;;;;;;;19.40;6.55;;;;;;;15.26;61.77;102107.00;5115455;28;20400;-70
2021/08/25 07:28:37;;;;;;;18.58;7.13;;;;;;;15.35;62.68;102111.41;5099468;28;20051;-70
2021/08/25 07:31:05;;;;;;;20.95;6.15;;;;;;;15.44;61.72;102106.97;5102497;28;20032;-70
2021/08/25 07:33:34;;;;;;;19.27;6.10;;;;;;;15.51;60.76;102108.03;5110304;27;20138;-70
2021/08/25 07:36:05;;;;;;;19.05;6.32;;;;;;;15.58;61.61;102118.16;5118754;27;20043;-70
2021/08/25 07:38:33;;;;;;;21.10;6.55;;;;;;;15.69;61.67;102104.53;5127617;27;20070;-70
2021/08/25 07:41:03;;;;;;;21.92;6.65;;;;;;;15.72;61.64;102106.91;5117509;27;20118;-70
2021/08/25 07:43:30;;;;;;;20.38;6.68;;;;;;;15.78;60.41;102108.97;5113582;27;20093;-69
2021/08/25 07:45:56;;;;;;;19.50;6.45;;;;;;;15.89;60.97;102106.03;5120958;27;20035;-70
2021/08/25 07:48:23;;;;;;;16.27;6.43;;;;;;;15.98;60.08;102098.91;5098910;28;20044;-70
2021/08/25 07:50:52;;;;;;;21.95;7.38;;;;;;;16.26;59.29;102106.78;5117124;27;20040;-70
2021/08/25 07:53:19;;;;;;;19.42;7.50;;;;;;;16.55;58.51;102101.09;5123005;27;20047;-69
2021/08/25 07:55:47;;;;;;;22.52;6.95;;;;;;;16.49;58.85;102096.38;5123489;27;20484;-70
2021/08/25 07:58:14;;;;;;;20.00;7.30;;;;;;;16.47;60.22;102099.22;5114506;27;20122;-70
2021/08/25 08:00:41;;;;;;;22.80;8.00;;;;;;;16.69;59.74;102097.78;5118546;27;20407;-69
2021/08/25 08:03:07;;;;;;;27.23;8.40;;;;;;;16.75;59.96;102096.31;5112340;27;20044;-70
2021/08/25 08:05:34;;;;;;;33.05;8.25;;;;;;;16.81;60.44;102093.00;5114843;27;20139;-70
2021/08/25 08:08:01;;;;;;;26.08;8.02;;;;;;;16.82;59.81;102094.66;5115932;27;20043;-70
2021/08/25 08:10:29;;;;;;;33.58;8.70;;;;;;;16.89;60.13;102094.88;5114843;27;20031;-70
2021/08/25 08:12:56;;;;;;;31.20;8.57;;;;;;;17.00;59.89;102083.84;5115458;27;20044;-70
2021/08/25 08:15:23;;;;;;;29.60;9.25;;;;;;;17.18;59.82;102088.25;5112652;27;20032;-70
2021/08/25 08:17:50;;;;;;;32.35;9.98;;;;;;;17.36;58.46;102096.16;5110725;27;20488;-70
2021/08/25 08:20:17;;;;;;;21.88;7.75;;;;;;;17.33;58.90;102088.44;5112011;27;20063;-69
2021/08/25 08:22:45;;;;;;;24.85;8.52;;;;;;;17.53;57.96;102088.97;5112571;27;20039;-69
2021/08/25 08:25:14;;;;;;;33.60;9.23;;;;;;;17.57;57.41;102083.09;5112169;28;20051;-69
2021/08/25 08:27:44;;;;;;;26.42;9.13;;;;;;;17.62;57.74;102082.59;5113533;28;20058;-69
2021/08/25 08:30:11;;;;;;;23.35;8.45;;;;;;;18.01;55.07;102077.38;5106154;27;20554;-69
2021/08/25 08:32:39;;;;;;;32.80;9.70;;;;;;;17.87;57.39;102075.41;5121429;27;20039;-69
2021/08/25 08:35:06;;;;;;;22.27;9.32;;;;;;;17.88;56.27;102077.06;5119552;27;20039;-69
2021/08/25 08:37:32;;;;;;;28.25;9.38;;;;;;;18.02;55.52;102071.00;5110832;27;20048;-69
2021/08/25 08:39:59;;;;;;;24.50;9.68;;;;;;;18.15;55.63;102066.94;5108563;27;20435;-70
2021/08/25 08:42:29;;;;;;;24.48;8.52;;;;;;;18.23;54.89;102072.31;5103380;27;20066;-69
2021/08/25 08:44:57;;;;;;;21.02;8.25;;;;;;;18.30;54.68;102072.44;5097697;28;20083;-69
2021/08/25 08:47:25;;;;;;;20.20;8.05;;;;;;;18.38;53.85;102075.94;5122059;27;20114;-69
2021/08/25 08:49:54;;;;;;;20.35;7.63;;;;;;;18.59;54.05;102075.38;5122688;27;20085;-69
2021/08/25 08:52:21;;;;;;;22.58;8.15;;;;;;;18.69;53.20;102077.00;5119892;27;20411;-69
2021/08/25 08:54:50;;;;;;;20.38;7.88;;;;;;;18.91;52.55;102070.84;5106307;27;20032;-69
2021/08/25 08:57:18;;;;;;;19.50;7.07;;;;;;;18.94;51.54;102073.19;5112891;27;20040;-69
2021/08/25 08:59:45;;;;;;;16.02;6.07;;;;;;;18.96;50.07;102070.34;5119319;27;20036;-69
2021/08/25 09:02:43;;;;;;;16.00;4.50;;;;;;;19.02;47.35;102068.78;5120234;27;20031;-69
2021/08/25 09:05:21;;;;;;;18.45;4.93;;;;;;;19.35;46.50;102067.53;5107199;27;20035;-70
2021/08/25 09:07:50;;;;;;;15.95;5.40;;;;;;;19.43;48.28;102072.03;5111598;27;20047;-70
2021/08/25 09:10:24;;;;;;;13.57;5.28;;;;;;;19.46;48.11;102065.44;5113291;27;20407;-69
2021/08/25 09:12:53;;;;;;;13.95;5.43;;;;;;;19.58;48.42;102072.06;5128080;27;20043;-70
2021/08/25 09:15:23;;;;;;;16.45;5.10;;;;;;;19.65;48.35;102070.31;5102980;28;20040;-70
2021/08/25 09:18:00;;;;;;;17.60;5.22;;;;;;;19.79;45.55;102060.63;5120465;27;20047;-70
2021/08/25 09:20:29;;;;;;;11.82;4.38;;;;;;;19.92;44.78;102063.53;5116616;27;20075;-70
2021/08/25 09:23:21;;;;;;;12.02;4.40;;;;;;;20.14;44.69;102052.88;5118424;27;20384;-70
2021/08/25 09:25:51;;;;;;;;;;;;;;;20.30;44.43;102057.22;5120852;27;20039;-70
2021/08/25 09:28:24;;;;;;;11.93;4.80;;;;;;;20.60;44.55;102055.31;5109778;27;19920;-70
2021/08/25 09:30:58;;;;;;;11.90;4.20;;;;;;;20.75;44.27;102055.31;5113506;27;20150;-69
2021/08/25 09:33:31;;;;;;;13.63;4.45;;;;;;;20.95;43.46;102052.84;5111715;27;20040;-70
2021/08/25 09:36:00;;;;;;;15.63;5.40;;;;;;;21.11;43.30;102040.97;5099913;28;20084;-70
2021/08/25 09:38:30;;;;;;;13.82;4.95;;;;;;;21.64;40.51;102041.47;5118060;27;20054;-70
2021/08/25 09:41:00;;;;;;;11.05;4.45;;;;;;;22.97;37.66;102037.75;5118589;27;20042;-70
2021/08/25 09:43:29;;;;;;;12.25;4.57;;;;;;;24.19;35.04;102027.50;5114549;27;20039;-70
2021/08/25 09:46:27;;;;;;;12.70;4.45;;;;;;;24.45;34.11;102031.16;5124592;27;20117;-70
2021/08/25 09:48:59;;;;;;;12.57;4.47;;;;;;;24.47;33.32;102024.50;5109751;27;20073;-70
2021/08/25 09:51:42;;;;;;;17.83;4.93;;;;;;;24.45;33.29;102018.47;5117029;27;20081;-70
2021/08/25 09:54:11;;;;;;;12.02;4.40;;;;;;;24.83;32.16;102016.81;5106801;27;20137;-70
2021/08/25 09:56:41;;;;;;;12.50;4.93;;;;;;;23.86;33.70;102014.06;5124218;27;20052;-70
2021/08/25 09:59:10;;;;;;;22.13;6.53;;;;;;;24.31;33.59;102017.66;5092311;28;20092;-70
2021/08/25 10:01:38;;;;;;;13.57;4.55;;;;;;;24.39;33.69;102013.06;5116766;27;20051;-70
2021/08/25 10:04:07;;;;;;;16.95;7.10;;;;;;;24.57;33.60;102006.94;5104672;27;20044;-70
2021/08/25 10:06:37;;;;;;;17.58;7.20;;;;;;;24.59;33.88;102008.38;5119805;27;20495;-70
2021/08/25 10:09:05;;;;;;;11.93;4.70;;;;;;;24.67;33.35;102002.72;5110705;27;20122;-70
2021/08/25 10:11:34;;;;;;;14.10;4.63;;;;;;;24.24;33.20;101989.75;5114705;27;20478;-70
2021/08/25 10:14:11;;;;;;;11.43;4.63;;;;;;;23.94;33.05;101990.28;5119787;27;20043;-70
2021/08/25 10:16:45;;;;;;;12.68;5.03;;;;;;;23.75;34.73;101978.41;5121197;27;20035;-71
2021/08/25 10:19:36;;;;;;;17.63;5.75;;;;;;;23.64;34.56;101981.78;5118557;27;20044;-70
2021/08/25 10:27:30;;;;;;;12.65;4.97;;;;;;;23.44;34.06;101975.56;5109877;27;20412;-69
2021/08/25 10:30:15;;;;;;;12.05;4.65;;;;;;;23.31;35.34;101979.94;5095332;28;20040;-69
2021/08/25 10:35:41;;;;;;;13.85;4.80;;;;;;;23.68;34.87;101974.88;5190825;27;20395;-69
2021/08/25 10:38:24;;;;;;;;;;;;;;;23.21;35.36;101976.81;5174236;27;20038;-69
2021/08/25 10:40:54;;;;;;;10.77;4.47;;;;;;;23.34;35.72;101966.00;5170172;27;19919;-69
2021/08/25 10:43:41;;;;;;;14.05;4.75;;;;;;;23.23;36.73;101968.50;5146675;27;20114;-69
2021/08/25 10:46:12;;;;;;;11.02;4.68;;;;;;;23.22;36.09;101970.38;5160809;27;20125;-69
2021/08/25 10:48:43;;;;;;;19.13;5.20;;;;;;;23.17;36.28;101972.84;5171344;27;20119;-70
2021/08/25 10:51:31;;;;;;;15.60;5.17;;;;;;;23.25;36.26;101969.09;5152340;27;20038;-69
2021/08/25 10:54:00;;;;;;;70.20;5.70;;;;;;;23.44;37.39;101962.03;5137062;27;20496;-69
2021/08/25 10:59:08;;;;;;;13.23;4.88;;;;;;;23.07;36.44;101959.75;5086974;27;20343;-69
2021/08/25 11:01:41;;;;;;;14.85;5.65;;;;;;;22.87;36.14;101959.72;5104254;28;20044;-70
2021/08/25 11:04:15;;;;;;;21.80;11.70;;;;;;;23.11;36.74;101955.59;5101392;28;20577;-70
2021/08/25 11:06:52;;;;;;;13.38;4.93;;;;;;;22.73;36.96;101955.31;5100788;28;20040;-70
2021/08/25 11:09:35;;;;;;;14.27;6.28;;;;;;;22.67;36.94;101939.94;5090467;28;20127;-70
2021/08/25 11:12:08;;;;;;;19.27;6.03;;;;;;;22.54;37.98;101944.25;5074959;28;20044;-69
2021/08/25 11:17:15;;;;;;;15.85;5.90;;;;;;;22.58;38.92;101936.56;5120422;27;20404;-70
2021/08/25 11:19:47;;;;;;;12.93;5.40;;;;;;;22.62;37.94;101929.72;5078709;28;20040;-70
2021/08/25 11:22:34;;;;;;;16.27;5.47;;;;;;;22.79;38.41;101922.88;5102424;28;20044;-70
2021/08/25 11:25:12;;;;;;;19.02;5.85;;;;;;;22.82;37.79;101924.31;5081818;28;20049;-69
2021/08/25 11:27:44;;;;;;;16.45;5.70;;;;;;;22.85;37.28;101907.69;5054331;28;20048;-69
2021/08/25 11:30:24;;;;;;;17.38;5.80;;;;;;;22.90;36.94;101909.75;5058949;28;20172;-69
2021/08/25 11:32:57;;;;;;;14.50;5.40;;;;;;;23.07;36.94;101896.69;5093492;28;20123;-69
2021/08/25 11:35:29;;;;;;;16.50;5.60;;;;;;;23.14;36.78;101889.38;5077036;28;20040;-69
2021/08/25 11:37:58;;;;;;;15.02;6.00;;;;;;;22.82;35.96;101883.75;5101277;28;20123;-69